sensor_id;sensor_type;location;lat;lon;timestamp;P1;durP1;ratioP1;P2;durP2;ratioP2
10260;SDS011;5175;42.606;23.388;2022-09-16T00:00:47;8.73;;;3.25;;
10260;SDS011;5175;42.606;23.388;2022-09-16T00:03:16;5.55;;;2.78;;
10260;SDS011;5175;42.606;23.388;2022-09-16T00:05:43;8.75;;;2.90;;
10260;SDS011;5175;42.606;23.388;2022-09-16T00:08:11;8.18;;;2.70;;
10260;SDS011;5175;42.606;23.388;2022-09-16T00:10:39;7.80;;;2.67;;
10260;SDS011;5175;42.606;23.388;2022-09-16T00:13:07;7.13;;;2.80;;
10260;SDS011;5175;42.606;23.388;2022-09-16T00:15:34;9.98;;;3.08;;
10260;SDS011;5175;42.606;23.388;2022-09-16T00:18:01;8.13;;;2.83;;
10260;SDS011;5175;42.606;23.388;2022-09-16T00:20:29;8.15;;;2.60;;
10260;SDS011;5175;42.606;23.388;2022-09-16T00:22:56;5.93;;;2.60;;
10260;SDS011;5175;42.606;23.388;2022-09-16T00:25:23;8.45;;;2.78;;
10260;SDS011;5175;42.606;23.388;2022-09-16T00:27:49;8.75;;;2.72;;
10260;SDS011;5175;42.606;23.388;2022-09-16T00:30:16;7.70;;;3.20;;
10260;SDS011;5175;42.606;23.388;2022-09-16T00:32:43;7.60;;;2.33;;
10260;SDS011;5175;42.606;23.388;2022-09-16T00:35:10;7.70;;;2.80;;
10260;SDS011;5175;42.606;23.388;2022-09-16T00:37:38;7.38;;;2.92;;
10260;SDS011;5175;42.606;23.388;2022-09-16T00:40:05;7.90;;;2.50;;
10260;SDS011;5175;42.606;23.388;2022-09-16T00:42:35;8.82;;;2.83;;
10260;SDS011;5175;42.606;23.388;2022-09-16T00:45:03;5.60;;;2.78;;
10260;SDS011;5175;42.606;23.388;2022-09-16T00:47:33;9.77;;;3.42;;
10260;SDS011;5175;42.606;23.388;2022-09-16T00:50:05;8.90;;;2.65;;
10260;SDS011;5175;42.606;23.388;2022-09-16T00:52:35;10.73;;;3.10;;
10260;SDS011;5175;42.606;23.388;2022-09-16T00:55:07;9.25;;;2.85;;
10260;SDS011;5175;42.606;23.388;2022-09-16T00:57:36;7.88;;;2.70;;
10260;SDS011;5175;42.606;23.388;2022-09-16T01:00:05;7.78;;;2.67;;
10260;SDS011;5175;42.606;23.388;2022-09-16T01:02:33;6.70;;;2.70;;
10260;SDS011;5175;42.606;23.388;2022-09-16T01:05:02;7.80;;;3.20;;
10260;SDS011;5175;42.606;23.388;2022-09-16T01:07:33;7.75;;;2.55;;
10260;SDS011;5175;42.606;23.388;2022-09-16T01:10:06;8.88;;;2.92;;
10260;SDS011;5175;42.606;23.388;2022-09-16T01:12:33;4.82;;;2.40;;
10260;SDS011;5175;42.606;23.388;2022-09-16T01:15:02;6.40;;;2.55;;
10260;SDS011;5175;42.606;23.388;2022-09-16T01:17:40;7.32;;;2.60;;
10260;SDS011;5175;42.606;23.388;2022-09-16T01:20:22;8.77;;;3.30;;
10260;SDS011;5175;42.606;23.388;2022-09-16T01:23:10;7.85;;;2.65;;
10260;SDS011;5175;42.606;23.388;2022-09-16T01:26:00;6.70;;;2.70;;
10260;SDS011;5175;42.606;23.388;2022-09-16T01:31:48;6.90;;;2.75;;
10260;SDS011;5175;42.606;23.388;2022-09-16T01:34:21;8.48;;;2.50;;
10260;SDS011;5175;42.606;23.388;2022-09-16T01:37:01;6.85;;;2.72;;
10260;SDS011;5175;42.606;23.388;2022-09-16T01:39:35;8.18;;;2.75;;
10260;SDS011;5175;42.606;23.388;2022-09-16T01:42:15;7.65;;;2.60;;
10260;SDS011;5175;42.606;23.388;2022-09-16T01:44:49;8.15;;;2.75;;
10260;SDS011;5175;42.606;23.388;2022-09-16T01:47:24;5.70;;;2.60;;
10260;SDS011;5175;42.606;23.388;2022-09-16T01:50:00;8.38;;;2.63;;
10260;SDS011;5175;42.606;23.388;2022-09-16T01:52:36;7.80;;;2.83;;
10260;SDS011;5175;42.606;23.388;2022-09-16T01:55:12;9.77;;;2.90;;
10260;SDS011;5175;42.606;23.388;2022-09-16T01:57:46;7.93;;;2.88;;
10260;SDS011;5175;42.606;23.388;2022-09-16T02:00:19;9.75;;;2.60;;
10260;SDS011;5175;42.606;23.388;2022-09-16T02:02:48;8.75;;;2.85;;
10260;SDS011;5175;42.606;23.388;2022-09-16T02:05:21;7.88;;;2.78;;
10260;SDS011;5175;42.606;23.388;2022-09-16T02:07:53;6.93;;;2.67;;
10260;SDS011;5175;42.606;23.388;2022-09-16T02:10:25;6.20;;;2.63;;
10260;SDS011;5175;42.606;23.388;2022-09-16T02:12:58;9.10;;;2.60;;
10260;SDS011;5175;42.606;23.388;2022-09-16T02:15:31;8.40;;;3.20;;
10260;SDS011;5175;42.606;23.388;2022-09-16T02:18:01;8.23;;;2.97;;
10260;SDS011;5175;42.606;23.388;2022-09-16T02:20:31;7.13;;;2.45;;
10260;SDS011;5175;42.606;23.388;2022-09-16T02:23:04;8.40;;;2.90;;
10260;SDS011;5175;42.606;23.388;2022-09-16T02:25:36;8.85;;;2.60;;
10260;SDS011;5175;42.606;23.388;2022-09-16T02:28:07;5.50;;;2.50;;
10260;SDS011;5175;42.606;23.388;2022-09-16T02:30:38;8.82;;;2.70;;
10260;SDS011;5175;42.606;23.388;2022-09-16T02:33:09;5.80;;;2.30;;
10260;SDS011;5175;42.606;23.388;2022-09-16T02:35:40;4.70;;;2.55;;
10260;SDS011;5175;42.606;23.388;2022-09-16T02:38:13;11.27;;;3.00;;
10260;SDS011;5175;42.606;23.388;2022-09-16T02:40:44;9.70;;;2.72;;
10260;SDS011;5175;42.606;23.388;2022-09-16T02:43:14;7.22;;;2.70;;
10260;SDS011;5175;42.606;23.388;2022-09-16T02:45:44;8.98;;;2.95;;
10260;SDS011;5175;42.606;23.388;2022-09-16T02:48:18;5.97;;;2.88;;
10260;SDS011;5175;42.606;23.388;2022-09-16T02:50:51;7.22;;;2.85;;
10260;SDS011;5175;42.606;23.388;2022-09-16T02:53:26;8.55;;;2.53;;
10260;SDS011;5175;42.606;23.388;2022-09-16T02:56:01;6.80;;;2.80;;
10260;SDS011;5175;42.606;23.388;2022-09-16T02:58:32;7.25;;;2.70;;
10260;SDS011;5175;42.606;23.388;2022-09-16T03:00:59;6.50;;;2.70;;
10260;SDS011;5175;42.606;23.388;2022-09-16T03:03:28;6.75;;;2.60;;
10260;SDS011;5175;42.606;23.388;2022-09-16T03:06:13;6.60;;;2.72;;
10260;SDS011;5175;42.606;23.388;2022-09-16T03:08:42;9.27;;;3.00;;
10260;SDS011;5175;42.606;23.388;2022-09-16T03:11:13;4.80;;;2.60;;
10260;SDS011;5175;42.606;23.388;2022-09-16T03:13:52;5.80;;;2.72;;
10260;SDS011;5175;42.606;23.388;2022-09-16T03:16:25;4.68;;;2.40;;
10260;SDS011;5175;42.606;23.388;2022-09-16T03:19:05;6.70;;;3.08;;
10260;SDS011;5175;42.606;23.388;2022-09-16T03:21:42;4.53;;;2.58;;
10260;SDS011;5175;42.606;23.388;2022-09-16T03:24:15;6.68;;;2.70;;
10260;SDS011;5175;42.606;23.388;2022-09-16T03:26:54;5.50;;;2.53;;
10260;SDS011;5175;42.606;23.388;2022-09-16T03:29:30;5.78;;;2.55;;
10260;SDS011;5175;42.606;23.388;2022-09-16T03:32:02;7.05;;;2.78;;
10260;SDS011;5175;42.606;23.388;2022-09-16T03:34:38;8.25;;;2.60;;
10260;SDS011;5175;42.606;23.388;2022-09-16T03:37:22;8.35;;;2.80;;
10260;SDS011;5175;42.606;23.388;2022-09-16T03:39:54;5.80;;;2.40;;
10260;SDS011;5175;42.606;23.388;2022-09-16T03:42:25;4.95;;;2.63;;
10260;SDS011;5175;42.606;23.388;2022-09-16T03:44:52;7.15;;;2.95;;
10260;SDS011;5175;42.606;23.388;2022-09-16T03:47:18;11.27;;;2.80;;
10260;SDS011;5175;42.606;23.388;2022-09-16T03:49:46;7.10;;;2.90;;
10260;SDS011;5175;42.606;23.388;2022-09-16T03:52:14;6.85;;;3.00;;
10260;SDS011;5175;42.606;23.388;2022-09-16T03:54:43;9.70;;;2.67;;
10260;SDS011;5175;42.606;23.388;2022-09-16T03:57:10;9.63;;;2.70;;
10260;SDS011;5175;42.606;23.388;2022-09-16T03:59:36;8.88;;;2.95;;
10260;SDS011;5175;42.606;23.388;2022-09-16T04:02:03;9.18;;;3.15;;
10260;SDS011;5175;42.606;23.388;2022-09-16T04:04:30;6.05;;;2.90;;
10260;SDS011;5175;42.606;23.388;2022-09-16T04:06:58;7.32;;;2.50;;
10260;SDS011;5175;42.606;23.388;2022-09-16T04:09:25;9.07;;;2.72;;
10260;SDS011;5175;42.606;23.388;2022-09-16T04:11:52;9.35;;;2.78;;
10260;SDS011;5175;42.606;23.388;2022-09-16T04:14:18;7.45;;;3.13;;
10260;SDS011;5175;42.606;23.388;2022-09-16T04:16:45;11.88;;;3.20;;
10260;SDS011;5175;42.606;23.388;2022-09-16T04:19:13;6.38;;;2.97;;
10260;SDS011;5175;42.606;23.388;2022-09-16T04:21:40;8.80;;;2.65;;
10260;SDS011;5175;42.606;23.388;2022-09-16T04:24:10;9.30;;;2.95;;
10260;SDS011;5175;42.606;23.388;2022-09-16T04:26:37;10.07;;;2.65;;
10260;SDS011;5175;42.606;23.388;2022-09-16T04:29:04;9.40;;;3.20;;
10260;SDS011;5175;42.606;23.388;2022-09-16T04:31:30;8.35;;;3.13;;
10260;SDS011;5175;42.606;23.388;2022-09-16T04:33:59;9.68;;;3.28;;
10260;SDS011;5175;42.606;23.388;2022-09-16T04:36:26;13.43;;;3.40;;
10260;SDS011;5175;42.606;23.388;2022-09-16T04:38:53;9.05;;;3.03;;
10260;SDS011;5175;42.606;23.388;2022-09-16T04:41:22;7.50;;;3.10;;
10260;SDS011;5175;42.606;23.388;2022-09-16T04:43:50;6.22;;;2.63;;
10260;SDS011;5175;42.606;23.388;2022-09-16T04:46:18;14.23;;;3.35;;
10260;SDS011;5175;42.606;23.388;2022-09-16T04:48:45;11.77;;;3.20;;
10260;SDS011;5175;42.606;23.388;2022-09-16T04:51:12;9.75;;;3.10;;
10260;SDS011;5175;42.606;23.388;2022-09-16T04:53:40;9.55;;;3.10;;
10260;SDS011;5175;42.606;23.388;2022-09-16T04:56:09;11.70;;;3.20;;
10260;SDS011;5175;42.606;23.388;2022-09-16T04:58:41;10.80;;;3.20;;
10260;SDS011;5175;42.606;23.388;2022-09-16T05:01:09;12.30;;;3.17;;
10260;SDS011;5175;42.606;23.388;2022-09-16T05:03:38;13.95;;;2.83;;
10260;SDS011;5175;42.606;23.388;2022-09-16T05:06:06;8.25;;;2.97;;
10260;SDS011;5175;42.606;23.388;2022-09-16T05:08:34;10.07;;;3.15;;
10260;SDS011;5175;42.606;23.388;2022-09-16T05:11:05;10.32;;;3.50;;
10260;SDS011;5175;42.606;23.388;2022-09-16T05:13:33;9.73;;;2.97;;
10260;SDS011;5175;42.606;23.388;2022-09-16T05:16:03;7.82;;;3.22;;
10260;SDS011;5175;42.606;23.388;2022-09-16T05:18:32;10.75;;;3.20;;
10260;SDS011;5175;42.606;23.388;2022-09-16T05:20:59;7.57;;;2.85;;
10260;SDS011;5175;42.606;23.388;2022-09-16T05:23:27;6.78;;;2.42;;
10260;SDS011;5175;42.606;23.388;2022-09-16T05:25:54;9.48;;;2.92;;
10260;SDS011;5175;42.606;23.388;2022-09-16T05:28:20;6.45;;;2.92;;
10260;SDS011;5175;42.606;23.388;2022-09-16T05:30:47;11.90;;;2.97;;
10260;SDS011;5175;42.606;23.388;2022-09-16T05:33:15;9.20;;;3.35;;
10260;SDS011;5175;42.606;23.388;2022-09-16T05:35:42;11.63;;;3.08;;
10260;SDS011;5175;42.606;23.388;2022-09-16T05:38:10;9.52;;;3.10;;
10260;SDS011;5175;42.606;23.388;2022-09-16T05:40:37;6.50;;;2.70;;
10260;SDS011;5175;42.606;23.388;2022-09-16T05:43:04;7.90;;;2.70;;
10260;SDS011;5175;42.606;23.388;2022-09-16T05:45:31;8.80;;;3.20;;
10260;SDS011;5175;42.606;23.388;2022-09-16T05:47:58;7.05;;;2.72;;
10260;SDS011;5175;42.606;23.388;2022-09-16T05:50:26;9.82;;;3.15;;
10260;SDS011;5175;42.606;23.388;2022-09-16T05:52:53;6.10;;;2.60;;
10260;SDS011;5175;42.606;23.388;2022-09-16T05:55:19;11.15;;;3.10;;
10260;SDS011;5175;42.606;23.388;2022-09-16T05:57:46;6.35;;;2.30;;
10260;SDS011;5175;42.606;23.388;2022-09-16T06:00:13;7.60;;;2.80;;
10260;SDS011;5175;42.606;23.388;2022-09-16T06:02:40;10.43;;;2.67;;
10260;SDS011;5175;42.606;23.388;2022-09-16T06:05:07;12.27;;;3.20;;
10260;SDS011;5175;42.606;23.388;2022-09-16T06:07:35;7.35;;;2.70;;
10260;SDS011;5175;42.606;23.388;2022-09-16T06:10:02;7.82;;;3.00;;
10260;SDS011;5175;42.606;23.388;2022-09-16T06:12:30;14.07;;;2.95;;
10260;SDS011;5175;42.606;23.388;2022-09-16T06:14:56;10.65;;;2.72;;
10260;SDS011;5175;42.606;23.388;2022-09-16T06:17:23;10.68;;;2.85;;
10260;SDS011;5175;42.606;23.388;2022-09-16T06:19:50;6.07;;;2.50;;
10260;SDS011;5175;42.606;23.388;2022-09-16T06:22:17;7.47;;;2.67;;
10260;SDS011;5175;42.606;23.388;2022-09-16T06:24:45;8.23;;;2.70;;
10260;SDS011;5175;42.606;23.388;2022-09-16T06:27:11;8.35;;;2.83;;
10260;SDS011;5175;42.606;23.388;2022-09-16T06:29:39;9.30;;;2.60;;
10260;SDS011;5175;42.606;23.388;2022-09-16T06:32:05;9.00;;;2.53;;
10260;SDS011;5175;42.606;23.388;2022-09-16T06:34:32;16.63;;;2.97;;
10260;SDS011;5175;42.606;23.388;2022-09-16T06:36:59;14.00;;;3.38;;
10260;SDS011;5175;42.606;23.388;2022-09-16T06:39:25;17.25;;;3.25;;
10260;SDS011;5175;42.606;23.388;2022-09-16T06:41:53;9.57;;;2.90;;
10260;SDS011;5175;42.606;23.388;2022-09-16T06:44:20;14.73;;;3.40;;
10260;SDS011;5175;42.606;23.388;2022-09-16T06:46:47;12.05;;;3.42;;
10260;SDS011;5175;42.606;23.388;2022-09-16T06:49:14;13.38;;;3.13;;
10260;SDS011;5175;42.606;23.388;2022-09-16T06:51:40;12.48;;;3.38;;
10260;SDS011;5175;42.606;23.388;2022-09-16T06:54:08;12.75;;;3.55;;
10260;SDS011;5175;42.606;23.388;2022-09-16T06:56:35;6.07;;;2.40;;
10260;SDS011;5175;42.606;23.388;2022-09-16T06:59:05;8.70;;;2.83;;
10260;SDS011;5175;42.606;23.388;2022-09-16T07:01:32;11.45;;;2.92;;
10260;SDS011;5175;42.606;23.388;2022-09-16T07:04:01;10.52;;;2.65;;
10260;SDS011;5175;42.606;23.388;2022-09-16T07:06:30;8.82;;;2.88;;
10260;SDS011;5175;42.606;23.388;2022-09-16T07:08:57;9.88;;;3.35;;
10260;SDS011;5175;42.606;23.388;2022-09-16T07:11:24;6.53;;;2.70;;
10260;SDS011;5175;42.606;23.388;2022-09-16T07:13:51;5.68;;;2.47;;
10260;SDS011;5175;42.606;23.388;2022-09-16T07:16:20;10.30;;;2.70;;
10260;SDS011;5175;42.606;23.388;2022-09-16T07:18:51;9.77;;;2.75;;
10260;SDS011;5175;42.606;23.388;2022-09-16T07:21:19;9.65;;;2.60;;
10260;SDS011;5175;42.606;23.388;2022-09-16T07:23:49;7.70;;;2.60;;
10260;SDS011;5175;42.606;23.388;2022-09-16T07:26:17;11.27;;;2.95;;
10260;SDS011;5175;42.606;23.388;2022-09-16T07:28:45;9.73;;;2.55;;
10260;SDS011;5175;42.606;23.388;2022-09-16T07:31:14;11.88;;;3.45;;
10260;SDS011;5175;42.606;23.388;2022-09-16T07:33:44;5.72;;;2.58;;
10260;SDS011;5175;42.606;23.388;2022-09-16T07:36:14;7.25;;;2.90;;
10260;SDS011;5175;42.606;23.388;2022-09-16T07:38:42;7.47;;;2.80;;
10260;SDS011;5175;42.606;23.388;2022-09-16T07:41:09;8.88;;;3.03;;
10260;SDS011;5175;42.606;23.388;2022-09-16T07:43:38;7.88;;;2.85;;
10260;SDS011;5175;42.606;23.388;2022-09-16T07:46:05;9.90;;;2.97;;
10260;SDS011;5175;42.606;23.388;2022-09-16T07:48:34;10.98;;;2.90;;
10260;SDS011;5175;42.606;23.388;2022-09-16T07:51:03;8.35;;;2.90;;
10260;SDS011;5175;42.606;23.388;2022-09-16T07:53:32;10.23;;;3.30;;
10260;SDS011;5175;42.606;23.388;2022-09-16T07:56:00;18.23;;;4.07;;
10260;SDS011;5175;42.606;23.388;2022-09-16T07:58:28;17.13;;;3.42;;
10260;SDS011;5175;42.606;23.388;2022-09-16T08:00:55;10.75;;;3.38;;
10260;SDS011;5175;42.606;23.388;2022-09-16T08:03:22;12.93;;;4.32;;
10260;SDS011;5175;42.606;23.388;2022-09-16T08:05:49;6.30;;;3.08;;
10260;SDS011;5175;42.606;23.388;2022-09-16T08:08:17;7.07;;;3.10;;
10260;SDS011;5175;42.606;23.388;2022-09-16T08:10:51;9.80;;;3.00;;
10260;SDS011;5175;42.606;23.388;2022-09-16T08:13:18;12.48;;;3.22;;
10260;SDS011;5175;42.606;23.388;2022-09-16T08:15:45;10.20;;;3.75;;
10260;SDS011;5175;42.606;23.388;2022-09-16T08:18:12;15.48;;;3.35;;
10260;SDS011;5175;42.606;23.388;2022-09-16T08:20:39;9.27;;;3.15;;
10260;SDS011;5175;42.606;23.388;2022-09-16T08:23:06;12.85;;;3.97;;
10260;SDS011;5175;42.606;23.388;2022-09-16T08:25:34;10.75;;;3.95;;
10260;SDS011;5175;42.606;23.388;2022-09-16T08:28:01;7.43;;;3.15;;
10260;SDS011;5175;42.606;23.388;2022-09-16T08:30:28;8.40;;;3.45;;
10260;SDS011;5175;42.606;23.388;2022-09-16T08:32:55;11.40;;;2.95;;
10260;SDS011;5175;42.606;23.388;2022-09-16T08:35:22;9.38;;;3.17;;
10260;SDS011;5175;42.606;23.388;2022-09-16T08:37:49;10.00;;;3.17;;
10260;SDS011;5175;42.606;23.388;2022-09-16T08:40:17;8.73;;;3.28;;
10260;SDS011;5175;42.606;23.388;2022-09-16T08:42:52;9.30;;;3.10;;
10260;SDS011;5175;42.606;23.388;2022-09-16T08:45:26;10.82;;;3.47;;
10260;SDS011;5175;42.606;23.388;2022-09-16T08:48:03;6.93;;;2.63;;
10260;SDS011;5175;42.606;23.388;2022-09-16T08:50:40;9.95;;;3.85;;
10260;SDS011;5175;42.606;23.388;2022-09-16T08:53:12;9.27;;;3.25;;
10260;SDS011;5175;42.606;23.388;2022-09-16T08:55:44;6.60;;;2.90;;
10260;SDS011;5175;42.606;23.388;2022-09-16T08:58:16;9.02;;;3.17;;
10260;SDS011;5175;42.606;23.388;2022-09-16T09:00:47;6.65;;;3.22;;
10260;SDS011;5175;42.606;23.388;2022-09-16T09:03:21;9.27;;;3.08;;
10260;SDS011;5175;42.606;23.388;2022-09-16T09:05:58;9.68;;;3.30;;
10260;SDS011;5175;42.606;23.388;2022-09-16T09:08:31;12.70;;;3.50;;
10260;SDS011;5175;42.606;23.388;2022-09-16T09:11:07;10.93;;;3.58;;
10260;SDS011;5175;42.606;23.388;2022-09-16T09:13:45;10.63;;;3.22;;
10260;SDS011;5175;42.606;23.388;2022-09-16T09:16:24;7.15;;;3.35;;
10260;SDS011;5175;42.606;23.388;2022-09-16T09:19:01;11.85;;;3.47;;
10260;SDS011;5175;42.606;23.388;2022-09-16T09:21:38;12.60;;;3.40;;
10260;SDS011;5175;42.606;23.388;2022-09-16T09:24:20;6.75;;;3.30;;
10260;SDS011;5175;42.606;23.388;2022-09-16T09:26:56;8.07;;;3.40;;
10260;SDS011;5175;42.606;23.388;2022-09-16T09:29:32;8.82;;;3.15;;
10260;SDS011;5175;42.606;23.388;2022-09-16T09:32:12;7.15;;;3.08;;
10260;SDS011;5175;42.606;23.388;2022-09-16T09:34:51;10.75;;;3.30;;
10260;SDS011;5175;42.606;23.388;2022-09-16T09:37:41;10.55;;;3.42;;
10260;SDS011;5175;42.606;23.388;2022-09-16T09:40:30;9.75;;;3.22;;
10260;SDS011;5175;42.606;23.388;2022-09-16T09:43:04;9.57;;;3.85;;
10260;SDS011;5175;42.606;23.388;2022-09-16T09:45:38;9.50;;;3.30;;
10260;SDS011;5175;42.606;23.388;2022-09-16T09:48:16;8.55;;;3.42;;
10260;SDS011;5175;42.606;23.388;2022-09-16T09:50:48;13.15;;;4.10;;
10260;SDS011;5175;42.606;23.388;2022-09-16T09:53:17;9.95;;;3.17;;
10260;SDS011;5175;42.606;23.388;2022-09-16T09:55:49;11.43;;;3.80;;
10260;SDS011;5175;42.606;23.388;2022-09-16T09:58:24;8.60;;;3.42;;
10260;SDS011;5175;42.606;23.388;2022-09-16T10:01:00;9.52;;;3.30;;
10260;SDS011;5175;42.606;23.388;2022-09-16T10:03:28;6.80;;;3.10;;
10260;SDS011;5175;42.606;23.388;2022-09-16T10:05:55;10.38;;;4.18;;
10260;SDS011;5175;42.606;23.388;2022-09-16T10:08:23;12.13;;;4.30;;
10260;SDS011;5175;42.606;23.388;2022-09-16T10:10:53;7.32;;;3.60;;
10260;SDS011;5175;42.606;23.388;2022-09-16T10:13:21;8.43;;;4.00;;
10260;SDS011;5175;42.606;23.388;2022-09-16T10:15:51;8.73;;;3.67;;
10260;SDS011;5175;42.606;23.388;2022-09-16T10:18:25;9.98;;;3.65;;
10260;SDS011;5175;42.606;23.388;2022-09-16T10:20:56;12.65;;;4.28;;
10260;SDS011;5175;42.606;23.388;2022-09-16T10:23:27;14.43;;;4.13;;
10260;SDS011;5175;42.606;23.388;2022-09-16T10:26:04;10.57;;;3.92;;
10260;SDS011;5175;42.606;23.388;2022-09-16T10:28:32;12.93;;;4.47;;
10260;SDS011;5175;42.606;23.388;2022-09-16T10:31:00;13.35;;;3.53;;
10260;SDS011;5175;42.606;23.388;2022-09-16T10:33:29;12.15;;;3.92;;
10260;SDS011;5175;42.606;23.388;2022-09-16T10:35:59;10.45;;;3.58;;
10260;SDS011;5175;42.606;23.388;2022-09-16T10:38:33;11.95;;;3.35;;
10260;SDS011;5175;42.606;23.388;2022-09-16T10:41:05;16.20;;;4.13;;
10260;SDS011;5175;42.606;23.388;2022-09-16T10:43:35;10.18;;;3.05;;
10260;SDS011;5175;42.606;23.388;2022-09-16T10:46:03;5.82;;;2.25;;
10260;SDS011;5175;42.606;23.388;2022-09-16T10:48:32;5.13;;;2.25;;
10260;SDS011;5175;42.606;23.388;2022-09-16T10:51:01;6.03;;;2.05;;
10260;SDS011;5175;42.606;23.388;2022-09-16T10:53:31;2.50;;;1.40;;
10260;SDS011;5175;42.606;23.388;2022-09-16T10:56:00;3.72;;;1.55;;
10260;SDS011;5175;42.606;23.388;2022-09-16T10:58:28;4.18;;;1.40;;
10260;SDS011;5175;42.606;23.388;2022-09-16T11:00:59;4.30;;;1.10;;
10260;SDS011;5175;42.606;23.388;2022-09-16T11:03:48;1.52;;;1.10;;
10260;SDS011;5175;42.606;23.388;2022-09-16T11:06:34;2.58;;;1.13;;
10260;SDS011;5175;42.606;23.388;2022-09-16T11:09:11;0.98;;;0.90;;
10260;SDS011;5175;42.606;23.388;2022-09-16T11:11:46;2.15;;;0.90;;
10260;SDS011;5175;42.606;23.388;2022-09-16T11:14:27;1.85;;;1.00;;
10260;SDS011;5175;42.606;23.388;2022-09-16T11:17:11;1.50;;;1.10;;
10260;SDS011;5175;42.606;23.388;2022-09-16T11:19:54;2.63;;;1.00;;
10260;SDS011;5175;42.606;23.388;2022-09-16T11:22:33;1.80;;;0.73;;
10260;SDS011;5175;42.606;23.388;2022-09-16T11:25:27;2.42;;;0.93;;
10260;SDS011;5175;42.606;23.388;2022-09-16T11:28:07;3.00;;;1.00;;
10260;SDS011;5175;42.606;23.388;2022-09-16T11:30:51;4.28;;;1.35;;
10260;SDS011;5175;42.606;23.388;2022-09-16T11:33:26;4.13;;;1.02;;
10260;SDS011;5175;42.606;23.388;2022-09-16T11:36:04;4.07;;;1.30;;
10260;SDS011;5175;42.606;23.388;2022-09-16T11:38:43;2.88;;;1.00;;
10260;SDS011;5175;42.606;23.388;2022-09-16T11:41:22;1.83;;;0.90;;
10260;SDS011;5175;42.606;23.388;2022-09-16T11:43:58;1.25;;;0.93;;
10260;SDS011;5175;42.606;23.388;2022-09-16T11:46:57;1.52;;;0.93;;
10260;SDS011;5175;42.606;23.388;2022-09-16T11:49:39;1.83;;;0.90;;
10260;SDS011;5175;42.606;23.388;2022-09-16T11:52:18;2.90;;;1.05;;
10260;SDS011;5175;42.606;23.388;2022-09-16T11:54:58;1.70;;;0.90;;
10260;SDS011;5175;42.606;23.388;2022-09-16T11:57:41;1.13;;;0.80;;
10260;SDS011;5175;42.606;23.388;2022-09-16T12:00:12;1.70;;;1.02;;
10260;SDS011;5175;42.606;23.388;2022-09-16T12:02:44;1.38;;;1.00;;
10260;SDS011;5175;42.606;23.388;2022-09-16T12:05:16;0.95;;;0.80;;
10260;SDS011;5175;42.606;23.388;2022-09-16T12:07:49;1.58;;;0.80;;
10260;SDS011;5175;42.606;23.388;2022-09-16T12:10:22;4.95;;;1.10;;
10260;SDS011;5175;42.606;23.388;2022-09-16T12:12:53;2.45;;;1.00;;
10260;SDS011;5175;42.606;23.388;2022-09-16T12:15:25;2.97;;;1.02;;
10260;SDS011;5175;42.606;23.388;2022-09-16T12:17:57;1.27;;;0.85;;
10260;SDS011;5175;42.606;23.388;2022-09-16T12:20:28;2.97;;;1.17;;
10260;SDS011;5175;42.606;23.388;2022-09-16T12:23:02;4.07;;;1.27;;
10260;SDS011;5175;42.606;23.388;2022-09-16T12:25:36;2.63;;;1.08;;
10260;SDS011;5175;42.606;23.388;2022-09-16T12:28:11;3.22;;;1.20;;
10260;SDS011;5175;42.606;23.388;2022-09-16T12:30:45;2.70;;;1.30;;
10260;SDS011;5175;42.606;23.388;2022-09-16T12:33:18;3.15;;;1.20;;
10260;SDS011;5175;42.606;23.388;2022-09-16T12:35:50;4.22;;;2.05;;
10260;SDS011;5175;42.606;23.388;2022-09-16T12:38:23;5.55;;;2.15;;
10260;SDS011;5175;42.606;23.388;2022-09-16T12:40:54;6.15;;;2.40;;
10260;SDS011;5175;42.606;23.388;2022-09-16T12:43:34;9.23;;;2.38;;
10260;SDS011;5175;42.606;23.388;2022-09-16T12:46:33;6.38;;;2.45;;
10260;SDS011;5175;42.606;23.388;2022-09-16T12:49:27;6.68;;;2.60;;
10260;SDS011;5175;42.606;23.388;2022-09-16T12:58:17;6.10;;;2.70;;
10260;SDS011;5175;42.606;23.388;2022-09-16T13:01:08;7.25;;;2.50;;
10260;SDS011;5175;42.606;23.388;2022-09-16T13:03:43;7.53;;;3.00;;
10260;SDS011;5175;42.606;23.388;2022-09-16T13:06:17;6.22;;;2.58;;
10260;SDS011;5175;42.606;23.388;2022-09-16T13:08:47;5.60;;;2.50;;
10260;SDS011;5175;42.606;23.388;2022-09-16T13:11:18;6.65;;;2.47;;
10260;SDS011;5175;42.606;23.388;2022-09-16T13:13:49;8.85;;;2.88;;
10260;SDS011;5175;42.606;23.388;2022-09-16T13:16:28;8.40;;;2.90;;
10260;SDS011;5175;42.606;23.388;2022-09-16T13:19:12;7.78;;;2.83;;
10260;SDS011;5175;42.606;23.388;2022-09-16T13:21:53;5.53;;;2.60;;
10260;SDS011;5175;42.606;23.388;2022-09-16T13:24:24;4.65;;;2.33;;
10260;SDS011;5175;42.606;23.388;2022-09-16T13:26:57;12.55;;;3.05;;
10260;SDS011;5175;42.606;23.388;2022-09-16T13:29:26;8.63;;;3.30;;
10260;SDS011;5175;42.606;23.388;2022-09-16T13:32:04;7.35;;;3.10;;
10260;SDS011;5175;42.606;23.388;2022-09-16T13:34:30;6.15;;;3.30;;
10260;SDS011;5175;42.606;23.388;2022-09-16T13:36:57;6.53;;;2.55;;
10260;SDS011;5175;42.606;23.388;2022-09-16T13:39:28;3.88;;;2.25;;
10260;SDS011;5175;42.606;23.388;2022-09-16T13:41:55;5.57;;;2.05;;
10260;SDS011;5175;42.606;23.388;2022-09-16T13:44:39;3.05;;;2.05;;
10260;SDS011;5175;42.606;23.388;2022-09-16T13:47:14;3.85;;;1.90;;
10260;SDS011;5175;42.606;23.388;2022-09-16T13:49:44;7.80;;;3.10;;
10260;SDS011;5175;42.606;23.388;2022-09-16T13:52:15;6.05;;;2.97;;
10260;SDS011;5175;42.606;23.388;2022-09-16T13:54:46;9.15;;;3.45;;
10260;SDS011;5175;42.606;23.388;2022-09-16T14:00:17;6.50;;;3.30;;
10260;SDS011;5175;42.606;23.388;2022-09-16T14:08:59;3.60;;;2.53;;
10260;SDS011;5175;42.606;23.388;2022-09-16T14:11:36;7.47;;;2.67;;
10260;SDS011;5175;42.606;23.388;2022-09-16T14:14:11;6.35;;;2.50;;
10260;SDS011;5175;42.606;23.388;2022-09-16T14:16:42;4.78;;;2.55;;
10260;SDS011;5175;42.606;23.388;2022-09-16T14:19:13;5.78;;;2.47;;
10260;SDS011;5175;42.606;23.388;2022-09-16T14:21:59;4.72;;;2.40;;
10260;SDS011;5175;42.606;23.388;2022-09-16T14:24:32;5.03;;;2.42;;
10260;SDS011;5175;42.606;23.388;2022-09-16T14:27:00;7.93;;;2.60;;
10260;SDS011;5175;42.606;23.388;2022-09-16T14:29:28;6.55;;;2.40;;
10260;SDS011;5175;42.606;23.388;2022-09-16T14:31:55;4.00;;;2.50;;
10260;SDS011;5175;42.606;23.388;2022-09-16T14:34:24;6.07;;;2.00;;
10260;SDS011;5175;42.606;23.388;2022-09-16T14:36:53;4.45;;;2.05;;
10260;SDS011;5175;42.606;23.388;2022-09-16T14:39:21;4.72;;;2.35;;
10260;SDS011;5175;42.606;23.388;2022-09-16T14:41:51;5.03;;;2.22;;
10260;SDS011;5175;42.606;23.388;2022-09-16T14:44:20;3.20;;;2.03;;
10260;SDS011;5175;42.606;23.388;2022-09-16T14:46:55;4.88;;;1.90;;
10260;SDS011;5175;42.606;23.388;2022-09-16T14:49:25;5.53;;;2.22;;
10260;SDS011;5175;42.606;23.388;2022-09-16T14:51:54;2.60;;;1.77;;
10260;SDS011;5175;42.606;23.388;2022-09-16T14:54:24;5.50;;;2.40;;
10260;SDS011;5175;42.606;23.388;2022-09-16T14:56:56;7.25;;;2.30;;
10260;SDS011;5175;42.606;23.388;2022-09-16T14:59:27;4.90;;;2.40;;
10260;SDS011;5175;42.606;23.388;2022-09-16T15:01:58;6.35;;;2.55;;
10260;SDS011;5175;42.606;23.388;2022-09-16T15:04:29;5.97;;;2.50;;
10260;SDS011;5175;42.606;23.388;2022-09-16T15:07:08;4.25;;;2.40;;
10260;SDS011;5175;42.606;23.388;2022-09-16T15:09:42;3.80;;;2.50;;
10260;SDS011;5175;42.606;23.388;2022-09-16T15:12:15;4.72;;;2.65;;
10260;SDS011;5175;42.606;23.388;2022-09-16T15:14:45;4.38;;;2.40;;
10260;SDS011;5175;42.606;23.388;2022-09-16T15:17:17;7.25;;;2.75;;
10260;SDS011;5175;42.606;23.388;2022-09-16T15:19:48;5.45;;;2.83;;
10260;SDS011;5175;42.606;23.388;2022-09-16T15:22:18;5.95;;;2.70;;
10260;SDS011;5175;42.606;23.388;2022-09-16T15:24:49;5.13;;;2.58;;
10260;SDS011;5175;42.606;23.388;2022-09-16T15:27:22;4.63;;;2.80;;
10260;SDS011;5175;42.606;23.388;2022-09-16T15:29:52;6.90;;;2.95;;